Time;durP1;ratioP1;P1;durP2;ratioP2;P2;SDS_P1;SDS_P2;PMS_P1;PMS_P2;Temp;Humidity;BMP_temperature;BMP_pressure;BME280_temperature;BME280_humidity;BME280_pressure;Samples;Min_cycle;Max_cycle;Signal;HPM_P1;HPM_P2
2021/08/03 00:00:25;;;;;;;1.63;1.53;;;13.20;99.90;;;;;;492257;241;28316;-70
2021/08/03 00:02:26;;;;;;;1.80;1.70;;;13.20;99.90;;;;;;492325;241;28322;-70
2021/08/03 00:04:27;;;;;;;2.03;1.70;;;13.20;99.90;;;;;;492318;241;28835;-69
2021/08/03 00:06:29;;;;;;;1.67;1.57;;;13.20;99.90;;;;;;492335;241;28752;-70
2021/08/03 00:08:30;;;;;;;2.30;1.90;;;13.20;99.90;;;;;;492336;241;28808;-70
2021/08/03 00:10:31;;;;;;;1.90;1.80;;;13.20;99.90;;;;;;492268;241;28264;-70
2021/08/03 00:12:34;;;;;;;1.90;1.80;;;;;;;;;;492340;241;28328;-70
2021/08/03 00:14:35;;;;;;;1.87;1.77;;;13.10;99.90;;;;;;492312;241;27813;-70
2021/08/03 00:16:36;;;;;;;1.70;1.60;;;13.10;99.90;;;;;;492329;241;28680;-70
2021/08/03 00:18:37;;;;;;;1.90;1.80;;;13.10;99.90;;;;;;492305;241;28806;-70
2021/08/03 00:20:39;;;;;;;2.00;1.90;;;13.10;99.90;;;;;;492324;241;28789;-70
2021/08/03 00:22:40;;;;;;;2.40;1.80;;;13.00;99.90;;;;;;492314;241;28364;-70
2021/08/03 00:24:42;;;;;;;2.10;2.00;;;;;;;;;;492306;241;28191;-70
2021/08/03 00:26:43;;;;;;;1.93;1.57;;;12.90;99.90;;;;;;492304;241;26548;-70
2021/08/03 00:28:54;;;;;;;2.37;2.17;;;12.90;99.90;;;;;;492327;241;28716;-70
2021/08/03 00:30:46;;;;;;;1.50;1.40;;;12.90;99.90;;;;;;491133;241;28762;-70
2021/08/03 00:32:48;;;;;;;2.00;1.90;;;12.90;99.90;;;;;;492326;241;28566;-70
2021/08/03 00:34:48;;;;;;;2.37;2.17;;;12.80;99.90;;;;;;492314;241;28237;-70
2021/08/03 00:36:50;;;;;;;2.00;1.90;;;12.80;99.90;;;;;;492325;241;28028;-71
2021/08/03 00:38:51;;;;;;;2.23;2.03;;;12.80;99.90;;;;;;492319;241;28202;-70
2021/08/03 00:40:52;;;;;;;2.10;2.00;;;12.80;99.90;;;;;;492336;241;28769;-71
2021/08/03 00:42:54;;;;;;;1.90;1.80;;;12.80;99.90;;;;;;492334;241;28407;-71
2021/08/03 00:44:55;;;;;;;1.87;1.77;;;12.70;99.90;;;;;;492300;241;28769;-70
2021/08/03 00:46:56;;;;;;;1.90;1.80;;;12.70;99.90;;;;;;492210;241;28311;-70
2021/08/03 00:48:57;;;;;;;1.90;1.80;;;12.70;99.90;;;;;;492314;241;28215;-70
2021/08/03 00:50:59;;;;;;;1.97;1.87;;;12.70;99.90;;;;;;492313;241;28715;-71
2021/08/03 00:53:00;;;;;;;1.90;1.80;;;12.80;99.90;;;;;;492323;241;28687;-70
2021/08/03 00:55:01;;;;;;;1.77;1.67;;;12.80;99.90;;;;;;492333;241;28693;-71
2021/08/03 00:57:02;;;;;;;1.83;1.73;;;12.90;99.90;;;;;;492297;241;28752;-70
2021/08/03 00:59:04;;;;;;;1.77;1.67;;;12.90;99.90;;;;;;492323;241;28098;-70
2021/08/03 01:01:05;;;;;;;1.90;1.80;;;13.00;99.90;;;;;;492331;240;28373;-70
2021/08/03 01:03:06;;;;;;;1.70;1.60;;;13.00;99.90;;;;;;492338;241;28261;-71
2021/08/03 01:05:07;;;;;;;1.77;1.67;;;12.90;99.90;;;;;;492349;241;27998;-71
2021/08/03 01:07:09;;;;;;;2.90;1.80;;;12.90;99.90;;;;;;492342;241;28275;-71
2021/08/03 01:09:10;;;;;;;2.00;1.90;;;12.90;99.90;;;;;;492318;241;28131;-71
2021/08/03 01:11:11;;;;;;;2.03;1.83;;;12.80;99.90;;;;;;492363;241;28175;-70
2021/08/03 01:13:12;;;;;;;1.73;1.63;;;12.80;99.90;;;;;;492321;241;28810;-70
2021/08/03 01:15:14;;;;;;;2.23;1.80;;;12.80;99.90;;;;;;492313;241;30221;-70
2021/08/03 01:17:15;;;;;;;2.03;1.83;;;12.80;99.90;;;;;;492321;241;28579;-71
2021/08/03 01:19:16;;;;;;;1.80;1.70;;;12.80;99.90;;;;;;492300;241;29031;-70
2021/08/03 01:21:17;;;;;;;2.27;2.17;;;12.70;99.90;;;;;;492292;241;28706;-71
2021/08/03 01:23:19;;;;;;;1.83;1.73;;;12.60;99.90;;;;;;492307;241;28284;-70
2021/08/03 01:25:20;;;;;;;1.87;1.77;;;12.70;99.90;;;;;;492342;241;28503;-70
2021/08/03 01:27:21;;;;;;;1.83;1.73;;;12.70;99.90;;;;;;492352;241;28280;-70
2021/08/03 01:29:22;;;;;;;2.03;1.73;;;12.70;99.90;;;;;;492274;241;28266;-71
2021/08/03 01:31:24;;;;;;;1.60;1.43;;;12.70;99.90;;;;;;492317;241;28301;-71
2021/08/03 01:33:25;;;;;;;1.73;1.63;;;12.70;99.90;;;;;;492166;241;28290;-70
2021/08/03 01:35:27;;;;;;;1.80;1.70;;;12.70;99.90;;;;;;491961;241;28384;-71
2021/08/03 01:37:27;;;;;;;2.00;1.90;;;12.70;99.90;;;;;;492306;241;28169;-70
2021/08/03 01:39:29;;;;;;;1.60;1.53;;;12.60;99.90;;;;;;492275;238;28972;-70
2021/08/03 01:41:30;;;;;;;2.40;1.77;;;12.60;99.90;;;;;;492303;241;28646;-70
2021/08/03 01:43:31;;;;;;;2.20;2.10;;;12.60;99.90;;;;;;492291;241;28984;-71
2021/08/03 01:45:32;;;;;;;1.77;1.67;;;12.60;99.90;;;;;;492317;241;29301;-71
2021/08/03 01:47:34;;;;;;;1.53;1.50;;;12.60;99.90;;;;;;492325;241;28662;-71
2021/08/03 01:49:36;;;;;;;2.67;1.70;;;12.60;99.90;;;;;;492348;240;28350;-70
2021/08/03 01:51:36;;;;;;;2.00;1.90;;;12.60;99.90;;;;;;492286;241;28299;-71
2021/08/03 01:53:37;;;;;;;1.77;1.67;;;12.60;99.90;;;;;;492299;241;28298;-70
2021/08/03 01:55:39;;;;;;;1.90;1.80;;;12.60;99.90;;;;;;492295;241;28968;-70
2021/08/03 01:57:40;;;;;;;1.80;1.70;;;12.60;99.90;;;;;;492303;241;28778;-71
2021/08/03 01:59:41;;;;;;;1.63;1.53;;;12.60;99.90;;;;;;492300;241;28219;-70
2021/08/03 02:01:42;;;;;;;1.87;1.77;;;12.60;99.90;;;;;;492315;241;29348;-71
2021/08/03 02:03:44;;;;;;;1.80;1.70;;;12.60;99.90;;;;;;492309;241;28665;-71
2021/08/03 02:05:45;;;;;;;1.77;1.67;;;12.60;99.90;;;;;;492305;241;29212;-71
2021/08/03 02:07:46;;;;;;;1.60;1.50;;;12.60;99.90;;;;;;492292;241;28092;-70
2021/08/03 02:09:47;;;;;;;1.80;1.70;;;12.60;99.90;;;;;;492291;241;28297;-71
2021/08/03 02:11:49;;;;;;;2.00;1.90;;;12.70;99.90;;;;;;492311;241;28475;-70
2021/08/03 02:13:50;;;;;;;1.60;1.50;;;12.70;99.90;;;;;;492316;241;28808;-71
2021/08/03 02:15:51;;;;;;;1.97;1.87;;;12.70;99.90;;;;;;492337;241;28775;-71
2021/08/03 02:17:52;;;;;;;1.77;1.40;;;12.70;99.90;;;;;;492331;241;28344;-70
2021/08/03 02:19:54;;;;;;;1.87;1.77;;;12.60;99.90;;;;;;492269;241;28289;-70
2021/08/03 02:21:55;;;;;;;1.60;1.50;;;12.60;99.90;;;;;;492293;241;28624;-71
2021/08/03 02:23:56;;;;;;;1.73;1.63;;;12.60;99.90;;;;;;492240;241;28407;-70
2021/08/03 02:25:57;;;;;;;1.33;1.33;;;12.60;99.90;;;;;;492293;241;29108;-71
2021/08/03 02:27:59;;;;;;;1.83;1.73;;;12.60;99.90;;;;;;492305;241;28385;-71
2021/08/03 02:30:00;;;;;;;1.77;1.67;;;12.50;99.90;;;;;;492311;241;28884;-71
2021/08/03 02:32:01;;;;;;;1.53;1.43;;;12.60;99.90;;;;;;492332;238;28272;-70
2021/08/03 02:34:02;;;;;;;1.63;1.53;;;12.60;99.90;;;;;;492317;241;28202;-70
2021/08/03 02:36:04;;;;;;;1.77;1.67;;;12.70;99.90;;;;;;492331;241;27982;-70
2021/08/03 02:38:05;;;;;;;2.27;1.43;;;12.70;99.90;;;;;;492324;241;28365;-71
2021/08/03 02:40:06;;;;;;;1.60;1.50;;;12.70;99.90;;;;;;492314;241;28417;-71
2021/08/03 02:42:07;;;;;;;1.60;1.50;;;12.80;99.90;;;;;;492338;241;28471;-70
2021/08/03 02:44:09;;;;;;;1.87;1.77;;;12.80;99.90;;;;;;492303;241;28787;-70
2021/08/03 02:46:12;;;;;;;1.73;1.63;;;12.80;99.90;;;;;;492316;241;28826;-70
2021/08/03 02:48:13;;;;;;;1.80;1.70;;;12.80;99.90;;;;;;492232;241;28518;-70
2021/08/03 02:50:12;;;;;;;1.80;1.70;;;12.90;99.90;;;;;;492207;241;28965;-70
2021/08/03 02:52:14;;;;;;;1.50;1.50;;;12.90;99.90;;;;;;492301;241;28149;-71
2021/08/03 02:54:15;;;;;;;1.57;1.57;;;12.90;99.90;;;;;;492269;241;28243;-71
2021/08/03 02:56:16;;;;;;;1.80;1.70;;;13.00;99.90;;;;;;492116;241;28513;-71
2021/08/03 02:58:17;;;;;;;2.00;1.90;;;13.00;99.90;;;;;;492300;241;28304;-71
2021/08/03 03:00:19;;;;;;;1.70;1.60;;;13.00;99.90;;;;;;492341;240;28816;-70
2021/08/03 03:02:20;;;;;;;2.47;1.80;;;13.00;99.90;;;;;;492390;241;28268;-71
2021/08/03 03:04:21;;;;;;;1.47;1.37;;;13.00;99.90;;;;;;492341;241;28777;-71
2021/08/03 03:06:22;;;;;;;1.70;1.60;;;13.00;99.90;;;;;;492337;241;28512;-70
2021/08/03 03:08:24;;;;;;;1.80;1.70;;;13.00;99.90;;;;;;492340;241;28732;-71
2021/08/03 03:10:25;;;;;;;1.97;1.87;;;13.00;99.90;;;;;;492324;241;28614;-70
2021/08/03 03:12:27;;;;;;;1.73;1.63;;;;;;;;;;492309;241;29251;-71
2021/08/03 03:14:29;;;;;;;1.70;1.60;;;13.00;99.90;;;;;;492331;241;26535;-71
2021/08/03 03:16:30;;;;;;;1.80;1.70;;;13.00;99.90;;;;;;492322;241;28836;-70
2021/08/03 03:18:31;;;;;;;1.67;1.57;;;13.00;99.90;;;;;;492311;241;28330;-70
2021/08/03 03:20:34;;;;;;;2.60;1.83;;;;;;;;;;492302;241;28869;-70
2021/08/03 03:22:35;;;;;;;1.53;1.43;;;13.00;99.90;;;;;;492344;241;26631;-70
2021/08/03 03:24:36;;;;;;;2.10;2.00;;;13.00;99.90;;;;;;492338;241;28432;-70
2021/08/03 03:26:37;;;;;;;1.67;1.57;;;13.00;99.90;;;;;;492340;241;28333;-70
2021/08/03 03:28:39;;;;;;;1.70;1.60;;;13.10;99.90;;;;;;492312;241;28887;-70
2021/08/03 03:30:40;;;;;;;2.30;1.70;;;13.10;99.90;;;;;;492346;241;28703;-71
2021/08/03 03:32:41;;;;;;;2.10;2.00;;;13.20;99.90;;;;;;492332;241;28728;-70
2021/08/03 03:34:42;;;;;;;1.53;1.43;;;13.20;99.90;;;;;;492332;241;29276;-71
2021/08/03 03:36:44;;;;;;;1.60;1.50;;;13.20;99.90;;;;;;492334;241;28368;-71
2021/08/03 03:38:45;;;;;;;1.70;1.60;;;13.20;99.90;;;;;;492339;241;28511;-71
2021/08/03 03:40:46;;;;;;;1.70;1.60;;;13.10;99.90;;;;;;492322;241;28335;-71
2021/08/03 03:42:47;;;;;;;1.60;1.50;;;13.00;99.90;;;;;;492341;238;28257;-71
2021/08/03 03:44:49;;;;;;;1.80;1.70;;;13.00;99.90;;;;;;492337;241;28161;-71
2021/08/03 03:46:50;;;;;;;1.70;1.60;;;13.00;99.90;;;;;;492300;241;28161;-71
2021/08/03 03:48:52;;;;;;;1.70;1.60;;;13.00;99.90;;;;;;492319;241;28418;-71
2021/08/03 03:50:52;;;;;;;1.27;1.27;;;13.00;99.90;;;;;;492319;241;28154;-70
2021/08/03 03:52:54;;;;;;;1.80;1.70;;;13.00;99.90;;;;;;492310;241;28496;-71
2021/08/03 03:54:55;;;;;;;1.53;1.43;;;13.00;99.90;;;;;;492296;241;29656;-71
2021/08/03 03:56:56;;;;;;;1.63;1.53;;;13.10;99.90;;;;;;492291;237;29324;-71
2021/08/03 03:58:57;;;;;;;1.70;1.60;;;13.10;99.90;;;;;;492197;241;29371;-71
2021/08/03 04:00:59;;;;;;;1.70;1.60;;;13.20;99.90;;;;;;492311;240;28773;-70
2021/08/03 04:03:00;;;;;;;1.73;1.63;;;13.20;99.90;;;;;;491941;240;28389;-70
2021/08/03 04:05:02;;;;;;;1.80;1.70;;;13.20;99.90;;;;;;492298;241;28023;-71
2021/08/03 04:07:02;;;;;;;1.60;1.50;;;13.20;99.90;;;;;;492284;241;28095;-71
2021/08/03 04:09:04;;;;;;;1.70;1.60;;;13.20;99.90;;;;;;492316;241;28811;-70
2021/08/03 04:11:05;;;;;;;1.70;1.60;;;13.20;99.90;;;;;;492335;241;28606;-71
2021/08/03 04:13:06;;;;;;;1.70;1.60;;;13.20;99.90;;;;;;492318;241;28253;-71
2021/08/03 04:15:07;;;;;;;1.60;1.50;;;13.30;99.90;;;;;;492320;241;28354;-70
2021/08/03 04:17:09;;;;;;;1.67;1.57;;;13.20;99.90;;;;;;492314;241;29364;-71
2021/08/03 04:19:10;;;;;;;1.80;1.70;;;13.20;99.90;;;;;;492314;241;28218;-71
2021/08/03 04:21:11;;;;;;;1.97;1.87;;;13.20;99.90;;;;;;492304;241;28287;-70
2021/08/03 04:23:12;;;;;;;1.80;1.70;;;13.20;99.90;;;;;;492327;241;28229;-70
2021/08/03 04:25:14;;;;;;;1.60;1.50;;;13.20;99.90;;;;;;492329;241;28316;-70
2021/08/03 04:27:15;;;;;;;1.80;1.70;;;13.20;99.90;;;;;;492312;241;28177;-70
2021/08/03 04:29:16;;;;;;;1.70;1.60;;;13.20;99.90;;;;;;492340;241;28048;-70
2021/08/03 04:31:17;;;;;;;1.70;1.60;;;13.10;99.90;;;;;;492338;241;28785;-70
2021/08/03 04:33:19;;;;;;;1.67;1.57;;;13.20;99.90;;;;;;492334;241;28815;-70
2021/08/03 04:35:20;;;;;;;1.70;1.60;;;13.20;99.90;;;;;;492339;241;29292;-70
2021/08/03 04:37:21;;;;;;;1.97;1.87;;;13.20;99.90;;;;;;492333;241;28809;-70
2021/08/03 04:39:23;;;;;;;1.90;1.80;;;13.20;99.90;;;;;;492307;241;28811;-70
2021/08/03 04:41:24;;;;;;;1.50;1.50;;;13.30;99.90;;;;;;492279;241;28810;-70
2021/08/03 04:43:25;;;;;;;1.70;1.60;;;13.30;99.90;;;;;;492312;241;28327;-70
2021/08/03 04:45:26;;;;;;;1.50;1.40;;;13.30;99.90;;;;;;492298;241;28300;-70
2021/08/03 04:47:27;;;;;;;1.50;1.40;;;13.30;99.90;;;;;;492298;241;28122;-70
2021/08/03 04:49:29;;;;;;;1.57;1.53;;;13.40;99.90;;;;;;492320;241;28310;-69
2021/08/03 04:51:30;;;;;;;1.50;1.40;;;13.40;99.90;;;;;;492307;241;28147;-71
2021/08/03 04:53:31;;;;;;;1.80;1.70;;;13.40;99.90;;;;;;492327;241;28335;-70
2021/08/03 04:55:32;;;;;;;1.23;1.23;;;13.40;99.90;;;;;;492323;241;28276;-70
2021/08/03 04:57:34;;;;;;;1.80;1.70;;;13.40;99.90;;;;;;492313;241;28226;-70
2021/08/03 04:59:37;;;;;;;2.10;2.00;;;13.40;99.90;;;;;;492316;241;29294;-70
2021/08/03 05:01:36;;;;;;;1.80;1.70;;;13.40;99.90;;;;;;492193;241;28853;-70
2021/08/03 05:03:37;;;;;;;1.80;1.70;;;13.50;99.90;;;;;;492288;241;28805;-70
2021/08/03 05:05:39;;;;;;;2.27;2.17;;;13.50;99.90;;;;;;492305;241;30524;-70
2021/08/03 05:07:40;;;;;;;2.00;1.80;;;13.50;99.90;;;;;;492298;241;28200;-71
2021/08/03 05:09:41;;;;;;;1.97;1.87;;;13.60;99.90;;;;;;492325;237;28189;-70
2021/08/03 05:11:42;;;;;;;1.93;1.83;;;13.60;99.90;;;;;;492310;241;28246;-70
2021/08/03 05:13:44;;;;;;;1.80;1.70;;;13.60;99.90;;;;;;492303;241;28425;-70
2021/08/03 05:15:45;;;;;;;1.90;1.80;;;13.60;99.90;;;;;;492301;241;28608;-71
2021/08/03 05:17:46;;;;;;;2.73;2.53;;;13.70;99.90;;;;;;492314;241;28312;-71
2021/08/03 05:19:47;;;;;;;1.77;1.67;;;13.70;99.90;;;;;;492303;241;28171;-70
2021/08/03 05:21:49;;;;;;;1.90;1.80;;;13.70;99.90;;;;;;492302;241;28210;-69
2021/08/03 05:23:50;;;;;;;1.80;1.70;;;13.70;99.90;;;;;;492273;241;28782;-69
2021/08/03 05:25:51;;;;;;;1.90;1.80;;;13.70;99.90;;;;;;492260;241;28661;-70
2021/08/03 05:27:52;;;;;;;2.03;1.93;;;13.70;99.90;;;;;;492252;241;28693;-70
2021/08/03 05:29:54;;;;;;;2.30;2.00;;;13.80;99.90;;;;;;492215;241;28774;-70
2021/08/03 05:31:55;;;;;;;2.07;1.97;;;13.80;99.90;;;;;;492260;241;28164;-70
2021/08/03 05:33:56;;;;;;;1.73;1.63;;;13.80;99.90;;;;;;492248;241;28494;-69
2021/08/03 05:35:57;;;;;;;1.90;1.80;;;13.90;99.90;;;;;;492279;241;28301;-70
2021/08/03 05:37:59;;;;;;;1.90;1.80;;;13.90;99.90;;;;;;492271;241;28216;-70
2021/08/03 05:40:02;;;;;;;1.70;1.60;;;14.00;99.90;;;;;;492266;241;28419;-72
2021/08/03 05:42:01;;;;;;;1.90;1.80;;;14.00;99.90;;;;;;492155;241;28131;-70
2021/08/03 05:44:02;;;;;;;1.70;1.60;;;14.00;99.90;;;;;;492290;241;28367;-70
2021/08/03 05:46:04;;;;;;;1.70;1.60;;;14.00;99.90;;;;;;492319;241;28317;-72
2021/08/03 05:48:05;;;;;;;1.77;1.67;;;14.00;99.90;;;;;;492288;240;28303;-70
2021/08/03 05:50:06;;;;;;;1.93;1.80;;;14.00;99.90;;;;;;492331;241;29117;-69
2021/08/03 05:52:07;;;;;;;1.90;1.80;;;14.00;99.90;;;;;;492314;241;29769;-70
2021/08/03 05:54:09;;;;;;;2.00;1.90;;;13.90;99.90;;;;;;492306;241;29113;-70
2021/08/03 05:56:10;;;;;;;1.67;1.57;;;13.90;99.90;;;;;;492321;241;28281;-70
2021/08/03 05:58:11;;;;;;;1.80;1.70;;;14.00;99.90;;;;;;492315;241;28221;-70
2021/08/03 06:00:12;;;;;;;1.70;1.60;;;14.00;99.90;;;;;;492323;241;28507;-70
2021/08/03 06:02:14;;;;;;;1.80;1.70;;;14.10;99.90;;;;;;492300;241;28183;-70
2021/08/03 06:04:15;;;;;;;2.10;1.70;;;14.10;99.90;;;;;;492316;241;28274;-69
2021/08/03 06:06:16;;;;;;;1.70;1.60;;;14.30;99.90;;;;;;492324;241;28301;-70
2021/08/03 06:08:17;;;;;;;1.63;1.53;;;14.30;99.90;;;;;;492331;241;28773;-70
2021/08/03 06:10:19;;;;;;;1.60;1.50;;;14.40;99.90;;;;;;492346;241;28367;-70
2021/08/03 06:12:20;;;;;;;2.60;2.40;;;14.50;99.90;;;;;;492335;241;28493;-71
2021/08/03 06:14:21;;;;;;;1.90;1.80;;;14.60;99.90;;;;;;492314;241;29205;-70
2021/08/03 06:16:24;;;;;;;1.70;1.60;;;14.70;99.90;;;;;;492278;241;29299;-72
2021/08/03 06:18:24;;;;;;;1.60;1.50;;;14.70;99.90;;;;;;492242;239;29125;-72
2021/08/03 06:20:25;;;;;;;2.70;2.00;;;14.70;99.90;;;;;;492326;241;28498;-70
2021/08/03 06:22:26;;;;;;;2.00;1.90;;;14.80;99.90;;;;;;492315;241;28761;-72
2021/08/03 06:24:28;;;;;;;1.70;1.60;;;14.80;99.90;;;;;;492320;241;28681;-72
2021/08/03 06:26:29;;;;;;;1.87;1.77;;;14.70;99.90;;;;;;492317;241;28721;-72
2021/08/03 06:28:30;;;;;;;1.70;1.60;;;14.70;99.90;;;;;;492293;241;28778;-70
2021/08/03 06:30:32;;;;;;;1.80;1.70;;;;;;;;;;492170;241;28412;-69
2021/08/03 06:32:34;;;;;;;1.80;1.70;;;;;;;;;;492102;241;27492;-71
2021/08/03 06:34:36;;;;;;;2.90;2.10;;;;;;;;;;492337;241;27495;-71
2021/08/03 06:36:38;;;;;;;1.77;1.67;;;;;;;;;;492337;241;27504;-71
2021/08/03 06:38:40;;;;;;;1.90;1.70;;;;;;;;;;492329;241;27399;-72
2021/08/03 06:40:43;;;;;;;2.17;2.07;;;;;;;;;;492327;241;27991;-71
2021/08/03 06:42:44;;;;;;;2.07;1.97;;;14.30;99.90;;;;;;492327;241;27882;-71
2021/08/03 06:44:45;;;;;;;2.03;1.93;;;14.30;99.90;;;;;;492350;241;29295;-70
2021/08/03 06:46:46;;;;;;;1.70;1.60;;;14.20;99.90;;;;;;492323;241;29016;-70
2021/08/03 06:48:47;;;;;;;1.93;1.83;;;14.30;99.90;;;;;;492336;241;28816;-70
2021/08/03 06:50:49;;;;;;;1.90;1.80;;;14.20;99.90;;;;;;492339;241;28262;-70
2021/08/03 06:52:50;;;;;;;1.83;1.73;;;14.20;99.90;;;;;;492350;241;28512;-70
2021/08/03 06:54:51;;;;;;;2.20;2.00;;;14.20;99.90;;;;;;492333;241;28292;-70
2021/08/03 06:56:52;;;;;;;1.80;1.70;;;14.20;99.90;;;;;;492287;241;28382;-70
2021/08/03 06:58:54;;;;;;;1.90;1.80;;;14.20;99.90;;;;;;492342;241;28482;-70
2021/08/03 07:00:55;;;;;;;1.70;1.60;;;14.20;99.90;;;;;;492371;241;28348;-70
2021/08/03 07:02:56;;;;;;;2.10;1.90;;;14.30;99.90;;;;;;492290;241;28402;-70
2021/08/03 07:04:57;;;;;;;1.93;1.83;;;14.30;99.90;;;;;;492286;241;28910;-70
2021/08/03 07:07:01;;;;;;;2.07;1.97;;;;;;;;;;492195;241;28943;-72
2021/08/03 07:09:03;;;;;;;2.23;2.13;;;14.40;99.90;;;;;;492312;241;26345;-70
2021/08/03 07:11:03;;;;;;;1.90;1.80;;;14.40;99.90;;;;;;492223;241;28387;-72
2021/08/03 07:13:05;;;;;;;2.20;1.50;;;;;;;;;;492332;241;28505;-72
2021/08/03 07:15:07;;;;;;;2.10;1.90;;;;;;;;;;492347;241;27415;-72
2021/08/03 07:17:10;;;;;;;1.83;1.73;;;;;;;;;;492354;241;27443;-72
2021/08/03 07:19:11;;;;;;;1.90;1.80;;;14.30;99.90;;;;;;492349;241;27980;-71
2021/08/03 07:21:13;;;;;;;1.70;1.60;;;;;;;;;;492336;241;29284;-71
2021/08/03 07:23:14;;;;;;;2.13;1.77;;;14.30;99.90;;;;;;492327;241;27919;-72
2021/08/03 07:25:16;;;;;;;1.70;1.60;;;;;;;;;;492322;240;28521;-72
2021/08/03 07:27:18;;;;;;;1.87;1.77;;;;;;;;;;492336;241;27506;-71
2021/08/03 07:29:21;;;;;;;1.80;1.70;;;;;;;;;;492321;241;27440;-70
2021/08/03 07:31:22;;;;;;;11.50;1.93;;;14.30;99.90;;;;;;492283;241;26262;-69
2021/08/03 07:33:24;;;;;;;1.80;1.70;;;14.30;99.90;;;;;;492322;241;28872;-72
2021/08/03 07:35:26;;;;;;;1.80;1.70;;;;;;;;;;492335;241;28480;-71
2021/08/03 07:37:29;;;;;;;2.10;2.00;;;;;;;;;;492331;241;27523;-71
2021/08/03 07:39:30;;;;;;;1.93;1.83;;;;;;;;;;492280;241;27463;-72
2021/08/03 07:41:32;;;;;;;1.70;1.60;;;;;;;;;;492345;240;27459;-69
2021/08/03 07:43:33;;;;;;;1.90;1.80;;;14.30;99.90;;;;;;492339;241;27467;-69
2021/08/03 07:45:35;;;;;;;1.63;1.53;;;;;;;;;;492330;241;28797;-69
2021/08/03 07:47:37;;;;;;;1.93;1.83;;;;;;;;;;492351;241;27585;-69
2021/08/03 07:49:41;;;;;;;1.90;1.80;;;;;;;;;;492329;241;28001;-71
2021/08/03 07:51:42;;;;;;;2.07;1.87;;;14.30;99.90;;;;;;492331;241;26791;-71
2021/08/03 07:53:43;;;;;;;1.60;1.50;;;14.40;99.90;;;;;;492313;241;28871;-71
2021/08/03 07:55:44;;;;;;;1.90;1.80;;;14.40;99.90;;;;;;492315;240;28781;-71
2021/08/03 07:57:45;;;;;;;1.70;1.60;;;14.40;99.90;;;;;;492333;241;28537;-71
2021/08/03 07:59:47;;;;;;;2.00;1.90;;;14.40;99.90;;;;;;492312;241;28807;-71
2021/08/03 08:01:48;;;;;;;1.90;1.80;;;14.30;99.90;;;;;;492331;240;28824;-71
2021/08/03 08:03:49;;;;;;;1.70;1.60;;;14.40;99.90;;;;;;492165;241;28805;-72
2021/08/03 08:05:51;;;;;;;1.70;1.60;;;14.30;99.90;;;;;;492319;241;28437;-71
2021/08/03 08:07:57;;;;;;;3.80;1.47;;;14.30;99.90;;;;;;492318;241;28354;-70
2021/08/03 08:09:53;;;;;;;2.57;1.73;;;14.30;99.90;;;;;;491981;241;28836;-70
2021/08/03 08:11:55;;;;;;;1.80;1.70;;;;;;;;;;492322;241;29238;-70
2021/08/03 08:13:56;;;;;;;1.80;1.70;;;14.30;99.90;;;;;;492315;241;27932;-70
2021/08/03 08:15:58;;;;;;;1.57;1.47;;;14.30;99.90;;;;;;492315;241;29382;-72
2021/08/03 08:17:59;;;;;;;1.70;1.60;;;14.40;99.90;;;;;;492328;241;28773;-70
2021/08/03 08:20:00;;;;;;;1.70;1.60;;;14.50;99.90;;;;;;492297;241;28484;-71
2021/08/03 08:22:01;;;;;;;1.50;1.40;;;14.50;99.90;;;;;;492297;241;28911;-70
2021/08/03 08:24:03;;;;;;;4.13;2.00;;;14.50;99.90;;;;;;492312;241;28778;-71
2021/08/03 08:26:04;;;;;;;1.30;1.30;;;14.50;99.90;;;;;;492307;241;28790;-71
2021/08/03 08:28:06;;;;;;;1.70;1.60;;;;;;;;;;492324;241;28825;-71
2021/08/03 08:30:07;;;;;;;1.63;1.53;;;14.40;99.90;;;;;;492309;241;27507;-72
2021/08/03 08:32:09;;;;;;;2.23;1.80;;;14.50;99.90;;;;;;492308;241;28814;-72
2021/08/03 08:34:10;;;;;;;1.60;1.50;;;14.40;99.90;;;;;;492258;241;28809;-70
2021/08/03 08:36:11;;;;;;;1.70;1.60;;;14.30;99.90;;;;;;492345;241;29047;-72
2021/08/03 08:38:12;;;;;;;1.73;1.63;;;14.30;99.90;;;;;;492321;241;28836;-69
2021/08/03 08:40:16;;;;;;;1.70;1.60;;;14.30;99.90;;;;;;492343;241;29279;-70
2021/08/03 08:42:15;;;;;;;1.60;1.50;;;14.30;99.90;;;;;;492164;241;29279;-72
2021/08/03 08:44:16;;;;;;;1.90;1.70;;;14.30;99.90;;;;;;492330;241;28494;-72
2021/08/03 08:46:17;;;;;;;1.90;1.80;;;14.30;99.90;;;;;;492320;241;28654;-71
2021/08/03 08:48:18;;;;;;;1.83;1.73;;;14.30;99.90;;;;;;492262;241;28819;-72
2021/08/03 08:50:22;;;;;;;1.77;1.67;;;14.20;99.90;;;;;;492296;241;28541;-70
2021/08/03 08:52:24;;;;;;;1.77;1.63;;;14.20;99.90;;;;;;492291;241;29413;-71
2021/08/03 08:54:25;;;;;;;1.97;1.77;;;14.20;99.90;;;;;;492333;241;28922;-72
2021/08/03 08:56:26;;;;;;;2.27;2.07;;;14.20;99.90;;;;;;492334;241;28892;-72
2021/08/03 08:58:27;;;;;;;1.87;1.77;;;14.20;99.90;;;;;;492262;241;28441;-69
2021/08/03 09:00:29;;;;;;;2.23;1.57;;;14.20;99.90;;;;;;492304;241;28832;-69
2021/08/03 09:02:30;;;;;;;1.70;1.60;;;14.20;99.90;;;;;;492334;241;28509;-69
2021/08/03 09:04:31;;;;;;;1.80;1.70;;;14.20;99.90;;;;;;492323;241;28849;-72
2021/08/03 09:06:32;;;;;;;1.60;1.50;;;14.30;99.90;;;;;;492347;240;28536;-72
2021/08/03 09:08:34;;;;;;;1.70;1.60;;;14.40;99.90;;;;;;492345;241;28812;-72
2021/08/03 09:10:35;;;;;;;1.43;1.40;;;14.40;99.90;;;;;;492306;241;28505;-72
2021/08/03 09:12:36;;;;;;;1.80;1.70;;;14.40;99.90;;;;;;492346;241;29254;-69
2021/08/03 09:14:37;;;;;;;1.87;1.77;;;14.40;99.90;;;;;;492310;241;29392;-72
2021/08/03 09:16:39;;;;;;;1.60;1.50;;;14.40;99.90;;;;;;492318;241;29402;-71
2021/08/03 09:18:40;;;;;;;1.43;1.37;;;14.50;99.90;;;;;;492311;241;28843;-69
2021/08/03 09:20:41;;;;;;;1.10;1.10;;;14.40;99.90;;;;;;492296;241;28432;-69
2021/08/03 09:22:43;;;;;;;1.77;1.67;;;14.50;99.90;;;;;;492291;241;28512;-71
2021/08/03 09:24:44;;;;;;;1.53;1.43;;;14.50;99.90;;;;;;492318;241;28841;-71
2021/08/03 09:26:49;;;;;;;1.30;1.30;;;14.60;99.90;;;;;;492316;241;28707;-71
2021/08/03 09:28:46;;;;;;;1.67;1.57;;;14.60;99.90;;;;;;491910;241;28778;-69
2021/08/03 09:30:47;;;;;;;1.50;1.40;;;14.60;99.90;;;;;;492315;241;28662;-72
2021/08/03 09:32:49;;;;;;;1.50;1.40;;;14.60;99.90;;;;;;492308;241;28809;-71
2021/08/03 09:34:50;;;;;;;2.83;1.50;;;14.80;99.90;;;;;;492318;241;28771;-69
2021/08/03 09:36:52;;;;;;;1.70;1.60;;;14.90;99.90;;;;;;492298;240;28811;-71
2021/08/03 09:38:52;;;;;;;1.40;1.30;;;15.00;99.90;;;;;;492285;241;30041;-72
2021/08/03 09:40:55;;;;;;;1.70;1.60;;;15.10;99.90;;;;;;492316;241;29194;-71
2021/08/03 09:42:55;;;;;;;1.60;1.50;;;15.10;99.90;;;;;;492210;241;29268;-73
2021/08/03 09:44:56;;;;;;;1.87;1.77;;;15.20;99.90;;;;;;492306;241;28656;-70
2021/08/03 09:46:57;;;;;;;1.90;1.80;;;15.30;99.90;;;;;;492303;241;28864;-71
2021/08/03 09:48:59;;;;;;;1.53;1.43;;;15.40;99.90;;;;;;492314;241;28796;-71
2021/08/03 09:51:00;;;;;;;1.40;1.30;;;15.50;99.90;;;;;;492295;241;28772;-71
2021/08/03 09:53:01;;;;;;;1.63;1.53;;;15.50;99.90;;;;;;492295;241;28825;-70
2021/08/03 09:55:02;;;;;;;1.30;1.20;;;15.50;99.90;;;;;;492308;241;28668;-70
2021/08/03 09:57:04;;;;;;;1.57;1.47;;;15.50;99.90;;;;;;492297;241;28822;-72
2021/08/03 09:59:05;;;;;;;2.00;1.63;;;15.50;99.90;;;;;;492319;241;28676;-72
2021/08/03 10:01:06;;;;;;;1.30;1.20;;;15.30;99.90;;;;;;492295;241;28673;-72
2021/08/03 10:03:07;;;;;;;1.70;1.60;;;15.40;99.90;;;;;;492290;241;29186;-72
2021/08/03 10:05:09;;;;;;;1.43;1.40;;;15.50;99.90;;;;;;492326;241;29270;-72
2021/08/03 10:07:10;;;;;;;1.30;1.30;;;15.50;99.90;;;;;;492321;241;29360;-72
2021/08/03 10:09:14;;;;;;;1.30;1.20;;;15.50;99.90;;;;;;492315;241;28873;-71
2021/08/03 10:11:15;;;;;;;1.20;1.20;;;15.60;99.90;;;;;;492338;241;28834;-71
2021/08/03 10:13:17;;;;;;;1.50;1.40;;;15.70;99.90;;;;;;492310;241;29212;-71
2021/08/03 10:15:18;;;;;;;1.60;1.50;;;15.80;99.90;;;;;;492341;241;29255;-71
2021/08/03 10:17:19;;;;;;;1.10;1.10;;;15.90;99.90;;;;;;492340;241;29294;-72
2021/08/03 10:19:20;;;;;;;1.33;1.23;;;16.00;99.90;;;;;;492324;241;28840;-70
2021/08/03 10:21:21;;;;;;;1.87;1.30;;;16.30;99.90;;;;;;492336;241;28789;-70
2021/08/03 10:23:23;;;;;;;1.60;1.50;;;16.70;99.90;;;;;;492322;241;28831;-70
2021/08/03 10:25:24;;;;;;;1.40;1.40;;;16.90;99.90;;;;;;492339;241;28817;-70
2021/08/03 10:27:25;;;;;;;2.20;1.60;;;17.20;99.90;;;;;;492322;241;28890;-72
2021/08/03 10:29:26;;;;;;;1.30;1.20;;;17.30;99.90;;;;;;492334;241;28809;-72
2021/08/03 10:31:28;;;;;;;1.57;1.47;;;17.50;99.90;;;;;;492261;241;28803;-71
2021/08/03 10:33:29;;;;;;;1.47;1.47;;;17.70;99.90;;;;;;492325;241;28876;-72
2021/08/03 10:35:30;;;;;;;1.40;1.30;;;18.00;99.90;;;;;;492332;241;28896;-71
2021/08/03 10:37:31;;;;;;;1.57;1.47;;;18.00;99.90;;;;;;492320;240;29246;-72